sensor_id;sensor_type;location;lat;lon;timestamp;pressure;altitude;pressure_sealevel;temperature;humidity
84271;BME280;74614;50.032;19.566;2023-12-29T00:01:21;98616.47;;;5.00;73.47
84271;BME280;74614;50.032;19.566;2023-12-29T00:03:23;98623.20;;;4.96;73.91
84271;BME280;74614;50.032;19.566;2023-12-29T00:05:21;98617.30;;;4.96;73.55
84271;BME280;74614;50.032;19.566;2023-12-29T00:07:24;98607.68;;;4.98;72.81
84271;BME280;74614;50.032;19.566;2023-12-29T00:09:22;98604.96;;;4.99;73.64
84271;BME280;74614;50.032;19.566;2023-12-29T00:11:23;98608.17;;;4.94;74.76
84271;BME280;74614;50.032;19.566;2023-12-29T00:13:27;98608.17;;;4.94;74.58
84271;BME280;74614;50.032;19.566;2023-12-29T00:15:25;98600.03;;;4.94;74.23
84271;BME280;74614;50.032;19.566;2023-12-29T00:17:21;98606.46;;;4.94;74.44
84271;BME280;74614;50.032;19.566;2023-12-29T00:19:24;98598.05;;;4.93;74.13
84271;BME280;74614;50.032;19.566;2023-12-29T00:21:25;98588.60;;;4.96;74.16
84271;BME280;74614;50.032;19.566;2023-12-29T00:23:24;98586.20;;;4.96;74.76
84271;BME280;74614;50.032;19.566;2023-12-29T00:25:25;98590.03;;;4.98;73.49
84271;BME280;74614;50.032;19.566;2023-12-29T00:27:24;98589.88;;;4.99;74.73
84271;BME280;74614;50.032;19.566;2023-12-29T00:29:24;98588.43;;;4.99;74.15
84271;BME280;74614;50.032;19.566;2023-12-29T00:31:23;98583.07;;;4.97;74.67
84271;BME280;74614;50.032;19.566;2023-12-29T00:33:26;98581.06;;;4.99;74.23
84271;BME280;74614;50.032;19.566;2023-12-29T00:35:23;98576.56;;;4.97;74.72
84271;BME280;74614;50.032;19.566;2023-12-29T00:37:23;98576.22;;;4.97;74.24
84271;BME280;74614;50.032;19.566;2023-12-29T00:39:33;98577.06;;;4.97;73.56
84271;BME280;74614;50.032;19.566;2023-12-29T00:42:24;98584.62;;;5.01;73.75
84271;BME280;74614;50.032;19.566;2023-12-29T00:44:21;98583.87;;;5.03;73.50
84271;BME280;74614;50.032;19.566;2023-12-29T00:46:23;98586.59;;;5.07;73.74
84271;BME280;74614;50.032;19.566;2023-12-29T00:48:22;98582.95;;;5.07;73.32
84271;BME280;74614;50.032;19.566;2023-12-29T00:50:23;98576.57;;;5.06;73.64
84271;BME280;74614;50.032;19.566;2023-12-29T00:52:22;98573.63;;;5.05;72.97
84271;BME280;74614;50.032;19.566;2023-12-29T00:54:26;98568.23;;;5.05;73.23
84271;BME280;74614;50.032;19.566;2023-12-29T00:56:24;98566.09;;;5.05;73.23
84271;BME280;74614;50.032;19.566;2023-12-29T00:58:22;98571.95;;;5.03;73.16
84271;BME280;74614;50.032;19.566;2023-12-29T01:00:24;98579.06;;;4.98;73.06
84271;BME280;74614;50.032;19.566;2023-12-29T01:02:21;98577.11;;;4.95;73.31
84271;BME280;74614;50.032;19.566;2023-12-29T01:04:22;98575.49;;;4.92;72.79
84271;BME280;74614;50.032;19.566;2023-12-29T01:06:26;98569.27;;;4.86;73.19
84271;BME280;74614;50.032;19.566;2023-12-29T01:08:22;98570.70;;;4.89;73.06
84271;BME280;74614;50.032;19.566;2023-12-29T01:10:21;98563.07;;;4.92;73.12
84271;BME280;74614;50.032;19.566;2023-12-29T01:12:22;98565.78;;;4.87;73.05
84271;BME280;74614;50.032;19.566;2023-12-29T01:14:22;98569.01;;;4.85;73.22
84271;BME280;74614;50.032;19.566;2023-12-29T01:16:21;98569.16;;;4.83;73.11
84271;BME280;74614;50.032;19.566;2023-12-29T01:18:25;98559.42;;;4.86;73.18
84271;BME280;74614;50.032;19.566;2023-12-29T01:20:24;98546.28;;;4.80;73.77
84271;BME280;74614;50.032;19.566;2023-12-29T01:22:22;98557.18;;;4.78;73.41
84271;BME280;74614;50.032;19.566;2023-12-29T01:24:24;98554.15;;;4.73;73.61
84271;BME280;74614;50.032;19.566;2023-12-29T01:26:23;98546.98;;;4.69;73.15
84271;BME280;74614;50.032;19.566;2023-12-29T01:28:22;98543.02;;;4.68;73.49
84271;BME280;74614;50.032;19.566;2023-12-29T01:30:27;98545.27;;;4.66;73.83
84271;BME280;74614;50.032;19.566;2023-12-29T01:32:29;98549.26;;;4.73;73.63
84271;BME280;74614;50.032;19.566;2023-12-29T01:34:25;98548.02;;;4.71;73.80
84271;BME280;74614;50.032;19.566;2023-12-29T01:36:23;98544.99;;;4.68;73.73
84271;BME280;74614;50.032;19.566;2023-12-29T01:38:32;98543.27;;;4.76;73.72
84271;BME280;74614;50.032;19.566;2023-12-29T01:40:23;98539.48;;;4.82;73.52
84271;BME280;74614;50.032;19.566;2023-12-29T01:42:24;98539.68;;;4.83;73.45
84271;BME280;74614;50.032;19.566;2023-12-29T01:44:24;98531.59;;;4.82;73.55
84271;BME280;74614;50.032;19.566;2023-12-29T01:46:25;98528.92;;;4.75;74.12
84271;BME280;74614;50.032;19.566;2023-12-29T01:48:22;98530.04;;;4.71;74.28
84271;BME280;74614;50.032;19.566;2023-12-29T01:50:25;98531.11;;;4.68;73.63
84271;BME280;74614;50.032;19.566;2023-12-29T01:52:22;98528.94;;;4.67;73.77
84271;BME280;74614;50.032;19.566;2023-12-29T01:54:31;98525.63;;;4.68;74.07
84271;BME280;74614;50.032;19.566;2023-12-29T01:56:25;98524.36;;;4.68;74.07
84271;BME280;74614;50.032;19.566;2023-12-29T01:58:23;98514.87;;;4.62;74.02
84271;BME280;74614;50.032;19.566;2023-12-29T02:00:24;98510.19;;;4.63;73.99
84271;BME280;74614;50.032;19.566;2023-12-29T02:02:23;98512.02;;;4.73;73.65
84271;BME280;74614;50.032;19.566;2023-12-29T02:04:23;98514.71;;;4.81;73.56
84271;BME280;74614;50.032;19.566;2023-12-29T02:06:21;98519.24;;;4.81;73.47
84271;BME280;74614;50.032;19.566;2023-12-29T02:08:25;98511.11;;;4.75;73.11
84271;BME280;74614;50.032;19.566;2023-12-29T02:10:22;98503.83;;;4.59;73.30
84271;BME280;74614;50.032;19.566;2023-12-29T02:12:26;98500.43;;;4.44;74.21
84271;BME280;74614;50.032;19.566;2023-12-29T02:14:23;98493.40;;;4.37;73.41
84271;BME280;74614;50.032;19.566;2023-12-29T02:16:30;98489.10;;;4.32;74.02
84271;BME280;74614;50.032;19.566;2023-12-29T02:19:31;98489.17;;;4.20;73.99
84271;BME280;74614;50.032;19.566;2023-12-29T02:22:21;98487.26;;;4.16;73.70
84271;BME280;74614;50.032;19.566;2023-12-29T02:24:21;98488.15;;;4.21;74.06
84271;BME280;74614;50.032;19.566;2023-12-29T02:26:26;98486.25;;;4.31;73.77
84271;BME280;74614;50.032;19.566;2023-12-29T02:28:25;98488.16;;;4.32;74.08
84271;BME280;74614;50.032;19.566;2023-12-29T02:30:29;98492.34;;;4.35;73.74
84271;BME280;74614;50.032;19.566;2023-12-29T02:33:23;98483.29;;;4.29;73.59
84271;BME280;74614;50.032;19.566;2023-12-29T02:35:24;98486.75;;;4.16;74.43
84271;BME280;74614;50.032;19.566;2023-12-29T02:37:21;98472.89;;;4.06;74.48
84271;BME280;74614;50.032;19.566;2023-12-29T02:39:22;98465.70;;;4.02;74.14
84271;BME280;74614;50.032;19.566;2023-12-29T02:41:19;98472.87;;;4.01;74.17
84271;BME280;74614;50.032;19.566;2023-12-29T02:43:26;98469.83;;;4.07;75.24
84271;BME280;74614;50.032;19.566;2023-12-29T02:45:20;98470.84;;;4.19;74.51
84271;BME280;74614;50.032;19.566;2023-12-29T02:47:21;98469.34;;;4.26;74.41
84271;BME280;74614;50.032;19.566;2023-12-29T02:49:21;98473.16;;;4.20;74.04
84271;BME280;74614;50.032;19.566;2023-12-29T02:51:21;98469.93;;;4.18;73.94
84271;BME280;74614;50.032;19.566;2023-12-29T02:53:20;98470.87;;;4.26;74.03
84271;BME280;74614;50.032;19.566;2023-12-29T02:55:21;98464.70;;;4.17;73.95
84271;BME280;74614;50.032;19.566;2023-12-29T02:57:21;98467.25;;;3.93;74.00
84271;BME280;74614;50.032;19.566;2023-12-29T02:59:22;98471.92;;;3.85;73.97
84271;BME280;74614;50.032;19.566;2023-12-29T03:01:19;98471.26;;;3.90;73.63
84271;BME280;74614;50.032;19.566;2023-12-29T03:03:21;98470.07;;;3.93;73.39
84271;BME280;74614;50.032;19.566;2023-12-29T03:05:22;98469.93;;;3.78;72.90
84271;BME280;74614;50.032;19.566;2023-12-29T03:07:21;98472.84;;;3.61;73.27
84271;BME280;74614;50.032;19.566;2023-12-29T03:09:19;98473.79;;;3.46;73.63
84271;BME280;74614;50.032;19.566;2023-12-29T03:11:21;98468.82;;;3.33;73.83
84271;BME280;74614;50.032;19.566;2023-12-29T03:13:19;98467.45;;;3.20;74.62
84271;BME280;74614;50.032;19.566;2023-12-29T03:15:22;98458.64;;;3.14;75.22
84271;BME280;74614;50.032;19.566;2023-12-29T03:17:19;98455.12;;;3.10;75.36
84271;BME280;74614;50.032;19.566;2023-12-29T03:19:21;98443.31;;;3.05;75.24
84271;BME280;74614;50.032;19.566;2023-12-29T03:21:21;98442.85;;;3.04;78.33
84271;BME280;74614;50.032;19.566;2023-12-29T03:23:22;98435.25;;;3.17;76.65
84271;BME280;74614;50.032;19.566;2023-12-29T03:25:19;98431.66;;;3.43;78.64
84271;BME280;74614;50.032;19.566;2023-12-29T03:27:21;98423.83;;;3.77;75.93
84271;BME280;74614;50.032;19.566;2023-12-29T03:29:22;98419.65;;;4.00;75.79
84271;BME280;74614;50.032;19.566;2023-12-29T03:31:21;98419.60;;;4.16;76.10
84271;BME280;74614;50.032;19.566;2023-12-29T03:33:23;98419.48;;;4.38;74.74
84271;BME280;74614;50.032;19.566;2023-12-29T03:35:22;98421.83;;;4.47;74.36
84271;BME280;74614;50.032;19.566;2023-12-29T03:37:21;98418.60;;;4.44;74.08
84271;BME280;74614;50.032;19.566;2023-12-29T03:39:21;98418.82;;;4.43;73.81
84271;BME280;74614;50.032;19.566;2023-12-29T03:41:21;98419.62;;;4.44;73.58
84271;BME280;74614;50.032;19.566;2023-12-29T03:43:22;98423.96;;;4.35;73.56
84271;BME280;74614;50.032;19.566;2023-12-29T03:45:21;98420.81;;;4.25;73.81
84271;BME280;74614;50.032;19.566;2023-12-29T03:47:22;98413.96;;;4.17;74.08
84271;BME280;74614;50.032;19.566;2023-12-29T03:49:19;98413.21;;;4.14;73.87
84271;BME280;74614;50.032;19.566;2023-12-29T03:51:21;98415.50;;;4.02;73.83
84271;BME280;74614;50.032;19.566;2023-12-29T03:53:19;98417.93;;;3.91;73.82
84271;BME280;74614;50.032;19.566;2023-12-29T03:55:22;98424.61;;;3.94;73.59
84271;BME280;74614;50.032;19.566;2023-12-29T03:57:19;98421.65;;;3.86;73.25
84271;BME280;74614;50.032;19.566;2023-12-29T03:59:23;98426.63;;;3.74;72.99
84271;BME280;74614;50.032;19.566;2023-12-29T04:01:19;98426.93;;;3.58;72.92
84271;BME280;74614;50.032;19.566;2023-12-29T04:03:21;98425.65;;;3.48;73.28
84271;BME280;74614;50.032;19.566;2023-12-29T04:05:20;98428.01;;;3.33;73.62
84271;BME280;74614;50.032;19.566;2023-12-29T04:07:24;98429.56;;;3.21;73.99
84271;BME280;74614;50.032;19.566;2023-12-29T04:09:19;98426.19;;;3.17;73.72
84271;BME280;74614;50.032;19.566;2023-12-29T04:11:21;98421.42;;;3.08;73.67
84271;BME280;74614;50.032;19.566;2023-12-29T04:13:20;98425.15;;;3.01;74.28
84271;BME280;74614;50.032;19.566;2023-12-29T04:15:21;98425.62;;;3.00;74.37
84271;BME280;74614;50.032;19.566;2023-12-29T04:17:19;98419.17;;;2.92;73.65
84271;BME280;74614;50.032;19.566;2023-12-29T04:19:22;98416.37;;;2.77;73.97
84271;BME280;74614;50.032;19.566;2023-12-29T04:21:20;98422.83;;;2.70;74.60
84271;BME280;74614;50.032;19.566;2023-12-29T04:23:21;98431.73;;;2.71;74.13
84271;BME280;74614;50.032;19.566;2023-12-29T04:25:19;98431.70;;;2.79;74.39
84271;BME280;74614;50.032;19.566;2023-12-29T04:27:24;98421.73;;;2.80;74.19
84271;BME280;74614;50.032;19.566;2023-12-29T04:29:19;98419.12;;;2.75;74.21
84271;BME280;74614;50.032;19.566;2023-12-29T04:31:22;98415.20;;;2.81;74.93
84271;BME280;74614;50.032;19.566;2023-12-29T04:33:19;98412.08;;;2.92;74.88
84271;BME280;74614;50.032;19.566;2023-12-29T04:35:21;98409.45;;;2.98;74.95
84271;BME280;74614;50.032;19.566;2023-12-29T04:37:19;98412.16;;;3.06;75.08
84271;BME280;74614;50.032;19.566;2023-12-29T04:39:21;98411.42;;;3.08;74.84
84271;BME280;74614;50.032;19.566;2023-12-29T04:41:19;98413.07;;;3.15;74.71
84271;BME280;74614;50.032;19.566;2023-12-29T04:43:27;98410.61;;;3.25;74.30
84271;BME280;74614;50.032;19.566;2023-12-29T04:45:19;98411.25;;;3.23;73.97
84271;BME280;74614;50.032;19.566;2023-12-29T04:47:22;98408.23;;;3.26;74.17
84271;BME280;74614;50.032;19.566;2023-12-29T04:49:20;98400.24;;;3.24;74.40
84271;BME280;74614;50.032;19.566;2023-12-29T04:51:27;98398.73;;;3.21;74.67
84271;BME280;74614;50.032;19.566;2023-12-29T04:53:19;98391.70;;;3.23;75.18
84271;BME280;74614;50.032;19.566;2023-12-29T04:55:22;98398.97;;;3.28;75.82
84271;BME280;74614;50.032;19.566;2023-12-29T04:57:22;98397.49;;;3.30;76.14
84271;BME280;74614;50.032;19.566;2023-12-29T04:59:21;98394.60;;;3.34;76.05
84271;BME280;74614;50.032;19.566;2023-12-29T05:01:20;98388.24;;;3.35;75.89
84271;BME280;74614;50.032;19.566;2023-12-29T05:03:23;98385.10;;;3.39;75.62
84271;BME280;74614;50.032;19.566;2023-12-29T05:05:19;98389.10;;;3.42;75.76
84271;BME280;74614;50.032;19.566;2023-12-29T05:07:27;98393.16;;;3.47;75.34
84271;BME280;74614;50.032;19.566;2023-12-29T05:09:22;98391.11;;;3.53;75.79
84271;BME280;74614;50.032;19.566;2023-12-29T05:11:22;98395.49;;;3.59;76.14
84271;BME280;74614;50.032;19.566;2023-12-29T05:13:20;98393.28;;;3.62;75.69
84271;BME280;74614;50.032;19.566;2023-12-29T05:15:23;98399.58;;;3.65;75.52
84271;BME280;74614;50.032;19.566;2023-12-29T05:17:20;98401.42;;;3.66;75.48
84271;BME280;74614;50.032;19.566;2023-12-29T05:19:21;98402.64;;;3.78;75.11
84271;BME280;74614;50.032;19.566;2023-12-29T05:21:22;98393.48;;;3.84;75.14
84271;BME280;74614;50.032;19.566;2023-12-29T05:23:21;98400.10;;;3.88;74.99
84271;BME280;74614;50.032;19.566;2023-12-29T05:25:19;98399.17;;;3.90;74.88
84271;BME280;74614;50.032;19.566;2023-12-29T05:27:21;98406.62;;;3.99;74.77
84271;BME280;74614;50.032;19.566;2023-12-29T05:29:20;98403.18;;;4.10;74.72
84271;BME280;74614;50.032;19.566;2023-12-29T05:31:21;98405.72;;;4.04;74.74
84271;BME280;74614;50.032;19.566;2023-12-29T05:33:19;98404.10;;;3.97;74.92
84271;BME280;74614;50.032;19.566;2023-12-29T05:35:21;98398.12;;;3.95;75.35
84271;BME280;74614;50.032;19.566;2023-12-29T05:37:18;98399.74;;;3.98;75.12
84271;BME280;74614;50.032;19.566;2023-12-29T05:39:21;98395.21;;;4.01;75.35
84271;BME280;74614;50.032;19.566;2023-12-29T05:41:19;98397.60;;;4.06;75.14
84271;BME280;74614;50.032;19.566;2023-12-29T05:43:24;98399.94;;;4.21;75.03
84271;BME280;74614;50.032;19.566;2023-12-29T05:45:20;98400.76;;;4.24;75.23
84271;BME280;74614;50.032;19.566;2023-12-29T05:47:22;98388.55;;;4.20;75.22
84271;BME280;74614;50.032;19.566;2023-12-29T05:49:24;98389.78;;;4.26;75.01
84271;BME280;74614;50.032;19.566;2023-12-29T05:51:22;98395.18;;;4.30;74.94
84271;BME280;74614;50.032;19.566;2023-12-29T05:53:19;98397.36;;;4.35;74.96
84271;BME280;74614;50.032;19.566;2023-12-29T05:55:22;98390.14;;;4.39;75.14
84271;BME280;74614;50.032;19.566;2023-12-29T05:57:18;98399.38;;;4.39;75.09
84271;BME280;74614;50.032;19.566;2023-12-29T05:59:33;98398.17;;;4.45;74.89
84271;BME280;74614;50.032;19.566;2023-12-29T06:02:23;98403.20;;;4.61;74.54
84271;BME280;74614;50.032;19.566;2023-12-29T06:04:21;98404.75;;;4.81;73.98
84271;BME280;74614;50.032;19.566;2023-12-29T06:06:23;98395.47;;;4.97;73.56
84271;BME280;74614;50.032;19.566;2023-12-29T06:08:22;98402.15;;;5.06;73.50
84271;BME280;74614;50.032;19.566;2023-12-29T06:10:24;98394.96;;;5.11;72.87
84271;BME280;74614;50.032;19.566;2023-12-29T06:12:22;98394.08;;;5.20;72.20
84271;BME280;74614;50.032;19.566;2023-12-29T06:14:25;98393.67;;;5.29;72.33
84271;BME280;74614;50.032;19.566;2023-12-29T06:16:23;98392.53;;;5.32;72.44
84271;BME280;74614;50.032;19.566;2023-12-29T06:18:24;98393.61;;;5.36;72.35
84271;BME280;74614;50.032;19.566;2023-12-29T06:20:23;98397.00;;;5.38;72.11
84271;BME280;74614;50.032;19.566;2023-12-29T06:22:21;98394.66;;;5.41;72.49
84271;BME280;74614;50.032;19.566;2023-12-29T06:24:22;98402.59;;;5.48;72.16
84271;BME280;74614;50.032;19.566;2023-12-29T06:26:23;98405.69;;;5.54;72.30
84271;BME280;74614;50.032;19.566;2023-12-29T06:28:26;98414.66;;;5.57;72.28
84271;BME280;74614;50.032;19.566;2023-12-29T06:30:23;98421.07;;;5.56;72.36
84271;BME280;74614;50.032;19.566;2023-12-29T06:32:23;98432.57;;;5.53;72.66
84271;BME280;74614;50.032;19.566;2023-12-29T06:34:26;98431.24;;;5.44;72.46
84271;BME280;74614;50.032;19.566;2023-12-29T06:36:25;98438.50;;;5.35;72.67
84271;BME280;74614;50.032;19.566;2023-12-29T06:38:22;98427.32;;;5.10;72.45
84271;BME280;74614;50.032;19.566;2023-12-29T06:40:21;98431.69;;;5.00;72.80
84271;BME280;74614;50.032;19.566;2023-12-29T06:42:23;98428.38;;;4.98;72.58
84271;BME280;74614;50.032;19.566;2023-12-29T06:44:24;98431.64;;;4.98;72.71
84271;BME280;74614;50.032;19.566;2023-12-29T06:46:25;98413.55;;;4.98;72.67
84271;BME280;74614;50.032;19.566;2023-12-29T06:48:22;98422.92;;;4.91;72.29
84271;BME280;74614;50.032;19.566;2023-12-29T06:50:22;98410.36;;;5.06;72.54
84271;BME280;74614;50.032;19.566;2023-12-29T06:52:22;98417.62;;;5.17;72.42
84271;BME280;74614;50.032;19.566;2023-12-29T06:54:22;98419.95;;;5.27;71.70
84271;BME280;74614;50.032;19.566;2023-12-29T06:56:22;98413.98;;;5.42;71.38
84271;BME280;74614;50.032;19.566;2023-12-29T06:58:25;98421.12;;;5.59;71.21
84271;BME280;74614;50.032;19.566;2023-12-29T07:00:24;98423.28;;;5.64;70.57
84271;BME280;74614;50.032;19.566;2023-12-29T07:02:22;98424.50;;;5.76;70.60
84271;BME280;74614;50.032;19.566;2023-12-29T07:04:23;98420.76;;;5.84;70.71
84271;BME280;74614;50.032;19.566;2023-12-29T07:06:22;98406.52;;;5.89;70.96
84271;BME280;74614;50.032;19.566;2023-12-29T07:08:26;98406.02;;;5.90;70.23
84271;BME280;74614;50.032;19.566;2023-12-29T07:10:22;98399.00;;;5.96;70.26
84271;BME280;74614;50.032;19.566;2023-12-29T07:12:24;98382.53;;;5.90;70.51
84271;BME280;74614;50.032;19.566;2023-12-29T07:14:22;98386.19;;;6.05;70.63
84271;BME280;74614;50.032;19.566;2023-12-29T07:16:26;98390.54;;;6.21;70.73
84271;BME280;74614;50.032;19.566;2023-12-29T07:18:22;98379.94;;;6.29;70.80
84271;BME280;74614;50.032;19.566;2023-12-29T07:20:23;98385.08;;;6.39;71.05
84271;BME280;74614;50.032;19.566;2023-12-29T07:22:22;98384.42;;;6.49;71.11
84271;BME280;74614;50.032;19.566;2023-12-29T07:24:23;98381.98;;;6.65;71.16
84271;BME280;74614;50.032;19.566;2023-12-29T07:26:23;98377.43;;;6.78;70.31
84271;BME280;74614;50.032;19.566;2023-12-29T07:28:22;98381.66;;;6.97;70.00
84271;BME280;74614;50.032;19.566;2023-12-29T07:30:22;98385.84;;;7.08;69.99
84271;BME280;74614;50.032;19.566;2023-12-29T07:32:25;98383.86;;;7.16;68.34
84271;BME280;74614;50.032;19.566;2023-12-29T07:34:22;98390.19;;;7.31;68.45
84271;BME280;74614;50.032;19.566;2023-12-29T07:36:21;98387.00;;;7.48;68.16
84271;BME280;74614;50.032;19.566;2023-12-29T07:38:23;98386.28;;;7.52;67.91
84271;BME280;74614;50.032;19.566;2023-12-29T07:40:23;98382.10;;;7.56;67.95
84271;BME280;74614;50.032;19.566;2023-12-29T07:42:22;98376.88;;;7.58;67.60
84271;BME280;74614;50.032;19.566;2023-12-29T07:44:24;98381.08;;;7.57;66.90
84271;BME280;74614;50.032;19.566;2023-12-29T07:46:27;98381.43;;;7.68;66.99
84271;BME280;74614;50.032;19.566;2023-12-29T07:48:21;98386.49;;;7.67;66.70
84271;BME280;74614;50.032;19.566;2023-12-29T07:50:24;98383.71;;;7.66;66.53
84271;BME280;74614;50.032;19.566;2023-12-29T07:52:21;98387.41;;;7.73;66.99
84271;BME280;74614;50.032;19.566;2023-12-29T07:54:23;98390.97;;;7.76;66.77
84271;BME280;74614;50.032;19.566;2023-12-29T07:56:22;98389.93;;;7.78;66.75
84271;BME280;74614;50.032;19.566;2023-12-29T07:58:22;98391.34;;;7.83;66.34
84271;BME280;74614;50.032;19.566;2023-12-29T08:00:25;98395.43;;;7.86;65.94
84271;BME280;74614;50.032;19.566;2023-12-29T08:02:23;98392.79;;;7.91;65.59
84271;BME280;74614;50.032;19.566;2023-12-29T08:04:30;98396.51;;;7.95;65.34
84271;BME280;74614;50.032;19.566;2023-12-29T08:06:25;98392.47;;;7.96;64.82
84271;BME280;74614;50.032;19.566;2023-12-29T08:08:24;98397.19;;;8.16;65.32
84271;BME280;74614;50.032;19.566;2023-12-29T08:10:26;98396.69;;;8.26;65.13
84271;BME280;74614;50.032;19.566;2023-12-29T08:12:23;98396.76;;;8.28;64.70
84271;BME280;74614;50.032;19.566;2023-12-29T08:14:23;98395.85;;;8.32;64.15
84271;BME280;74614;50.032;19.566;2023-12-29T08:16:22;98390.25;;;8.42;63.46
84271;BME280;74614;50.032;19.566;2023-12-29T08:18:23;98394.59;;;8.51;63.57
84271;BME280;74614;50.032;19.566;2023-12-29T08:20:26;98399.17;;;8.54;62.46
84271;BME280;74614;50.032;19.566;2023-12-29T08:22:23;98398.69;;;8.62;62.18
84271;BME280;74614;50.032;19.566;2023-12-29T08:24:24;98399.72;;;8.62;61.05
84271;BME280;74614;50.032;19.566;2023-12-29T08:26:26;98398.38;;;8.69;61.06
84271;BME280;74614;50.032;19.566;2023-12-29T08:28:21;98397.22;;;8.75;60.75
84271;BME280;74614;50.032;19.566;2023-12-29T08:30:21;98396.68;;;8.80;59.93
84271;BME280;74614;50.032;19.566;2023-12-29T08:32:21;98404.07;;;8.88;59.96
84271;BME280;74614;50.032;19.566;2023-12-29T08:34:21;98407.68;;;8.95;59.63
84271;BME280;74614;50.032;19.566;2023-12-29T08:36:22;98414.80;;;8.98;59.22
84271;BME280;74614;50.032;19.566;2023-12-29T08:38:23;98415.51;;;9.07;58.65
84271;BME280;74614;50.032;19.566;2023-12-29T08:40:26;98411.13;;;9.14;58.32
84271;BME280;74614;50.032;19.566;2023-12-29T08:42:23;98413.23;;;9.29;58.61
84271;BME280;74614;50.032;19.566;2023-12-29T08:44:23;98413.70;;;9.39;59.32
84271;BME280;74614;50.032;19.566;2023-12-29T08:46:22;98417.73;;;9.40;58.77
84271;BME280;74614;50.032;19.566;2023-12-29T08:48:24;98407.83;;;9.37;57.44
84271;BME280;74614;50.032;19.566;2023-12-29T08:50:24;98409.47;;;9.49;58.05
84271;BME280;74614;50.032;19.566;2023-12-29T08:52:22;98421.30;;;9.50;57.27
84271;BME280;74614;50.032;19.566;2023-12-29T08:54:21;98423.20;;;9.60;57.07
84271;BME280;74614;50.032;19.566;2023-12-29T08:56:21;98427.80;;;9.71;57.29
84271;BME280;74614;50.032;19.566;2023-12-29T08:58:22;98426.43;;;9.72;56.36
84271;BME280;74614;50.032;19.566;2023-12-29T09:00:24;98425.33;;;9.82;56.72
84271;BME280;74614;50.032;19.566;2023-12-29T09:02:21;98428.83;;;9.77;56.35
84271;BME280;74614;50.032;19.566;2023-12-29T09:04:21;98424.56;;;9.87;56.79
84271;BME280;74614;50.032;19.566;2023-12-29T09:06:22;98423.95;;;9.82;55.77
84271;BME280;74614;50.032;19.566;2023-12-29T09:08:23;98422.48;;;9.84;56.27
84271;BME280;74614;50.032;19.566;2023-12-29T09:10:25;98417.78;;;9.79;55.86
84271;BME280;74614;50.032;19.566;2023-12-29T09:12:22;98420.20;;;9.79;55.81
84271;BME280;74614;50.032;19.566;2023-12-29T09:14:21;98415.48;;;9.81;55.76
84271;BME280;74614;50.032;19.566;2023-12-29T09:16:23;98401.09;;;9.88;56.68
84271;BME280;74614;50.032;19.566;2023-12-29T09:18:21;98404.66;;;9.78;55.76
84271;BME280;74614;50.032;19.566;2023-12-29T09:20:22;98408.80;;;9.76;56.05
84271;BME280;74614;50.032;19.566;2023-12-29T09:22:22;98396.81;;;9.70;56.29
84271;BME280;74614;50.032;19.566;2023-12-29T09:24:28;98402.75;;;9.76;56.99
84271;BME280;74614;50.032;19.566;2023-12-29T09:26:25;98401.65;;;9.69;56.73
84271;BME280;74614;50.032;19.566;2023-12-29T09:28:23;98402.60;;;9.68;56.49
84271;BME280;74614;50.032;19.566;2023-12-29T09:30:22;98398.36;;;9.69;56.64
84271;BME280;74614;50.032;19.566;2023-12-29T09:32:21;98395.95;;;9.78;57.42
84271;BME280;74614;50.032;19.566;2023-12-29T09:34:23;98389.81;;;9.78;57.50
84271;BME280;74614;50.032;19.566;2023-12-29T09:36:22;98385.25;;;9.68;56.78
84271;BME280;74614;50.032;19.566;2023-12-29T09:38:24;98369.21;;;9.81;57.21
84271;BME280;74614;50.032;19.566;2023-12-29T09:40:24;98375.31;;;9.78;56.59
84271;BME280;74614;50.032;19.566;2023-12-29T09:42:28;98378.07;;;9.76;56.65
84271;BME280;74614;50.032;19.566;2023-12-29T09:44:22;98370.37;;;9.74;56.57
84271;BME280;74614;50.032;19.566;2023-12-29T09:46:25;98370.23;;;9.69;56.21
84271;BME280;74614;50.032;19.566;2023-12-29T09:48:23;98363.43;;;9.70;56.33
84271;BME280;74614;50.032;19.566;2023-12-29T09:50:24;98353.75;;;9.70;55.71
84271;BME280;74614;50.032;19.566;2023-12-29T09:52:22;98357.44;;;9.76;56.34
84271;BME280;74614;50.032;19.566;2023-12-29T09:54:21;98357.05;;;9.81;56.69
84271;BME280;74614;50.032;19.566;2023-12-29T09:56:27;98354.12;;;9.81;56.34
84271;BME280;74614;50.032;19.566;2023-12-29T09:58:22;98350.02;;;9.78;56.61
84271;BME280;74614;50.032;19.566;2023-12-29T10:00:23;98346.00;;;9.84;56.92
84271;BME280;74614;50.032;19.566;2023-12-29T10:02:24;98342.09;;;9.72;56.28
84271;BME280;74614;50.032;19.566;2023-12-29T10:05:10;98346.43;;;9.81;56.95
84271;BME280;74614;50.032;19.566;2023-12-29T10:07:26;98343.58;;;9.80;56.62
84271;BME280;74614;50.032;19.566;2023-12-29T10:09:24;98341.34;;;9.85;57.02
84271;BME280;74614;50.032;19.566;2023-12-29T10:11:24;98331.42;;;9.85;56.73
84271;BME280;74614;50.032;19.566;2023-12-29T10:13:23;98344.10;;;9.88;56.72
84271;BME280;74614;50.032;19.566;2023-12-29T10:15:31;98330.34;;;9.79;56.05
84271;BME280;74614;50.032;19.566;2023-12-29T10:17:34;98331.76;;;9.81;56.41
84271;BME280;74614;50.032;19.566;2023-12-29T10:20:37;98314.31;;;9.72;55.09
84271;BME280;74614;50.032;19.566;2023-12-29T10:23:35;98328.09;;;9.91;55.54
84271;BME280;74614;50.032;19.566;2023-12-29T10:26:20;98333.11;;;9.90;55.23
84271;BME280;74614;50.032;19.566;2023-12-29T10:28:18;98324.82;;;9.92;55.12
84271;BME280;74614;50.032;19.566;2023-12-29T10:30:21;98325.26;;;10.05;55.59
84271;BME280;74614;50.032;19.566;2023-12-29T10:32:20;98326.12;;;10.01;55.58
84271;BME280;74614;50.032;19.566;2023-12-29T10:34:20;98330.17;;;10.03;55.54
84271;BME280;74614;50.032;19.566;2023-12-29T10:36:25;98331.90;;;10.02;55.52
84271;BME280;74614;50.032;19.566;2023-12-29T10:38:21;98331.98;;;9.97;54.91
84271;BME280;74614;50.032;19.566;2023-12-29T10:40:19;98331.21;;;10.00;54.49
84271;BME280;74614;50.032;19.566;2023-12-29T10:42:20;98328.15;;;10.11;55.16
84271;BME280;74614;50.032;19.566;2023-12-29T10:44:19;98320.25;;;10.00;54.97